Time;durP1;ratioP1;P1;durP2;ratioP2;P2;SDS_P1;SDS_P2;PMS_P1;PMS_P2;Temp;Humidity;BMP_temperature;BMP_pressure;BME280_temperature;BME280_humidity;BME280_pressure;Samples;Min_cycle;Max_cycle;Signal;HPM_P1;HPM_P2
2022/03/17 00:01:35;;;;;;;20.40;13.13;;;;;;;9.67;69.39;101848.09;4976381;28;20481;-95
2022/03/17 00:04:44;;;;;;;22.35;13.73;;;;;;;9.67;68.98;101838.56;4991190;28;20026;-95
2022/03/17 00:07:10;;;;;;;21.08;13.32;;;;;;;9.66;69.74;101838.59;4974947;28;20030;-96
2022/03/17 00:09:55;;;;;;;21.98;13.68;;;;;;;9.66;69.15;101835.97;4977640;28;20029;-96
2022/03/17 00:16:31;;;;;;;20.25;12.70;;;;;;;9.66;68.93;101851.56;4978695;28;20061;-96
2022/03/17 00:19:16;;;;;;;21.45;13.85;;;;;;;9.65;69.25;101844.66;4974810;28;20437;-94
2022/03/17 00:24:23;;;;;;;20.90;13.85;;;;;;;9.64;69.24;101835.13;5703029;23;20061;-93
2022/03/17 00:26:49;;;;;;;22.15;14.35;;;;;;;9.64;69.34;101838.59;5010407;28;20462;-94
2022/03/17 00:30:17;;;;;;;23.13;14.73;;;;;;;9.65;68.63;101831.66;4995195;28;20022;-92
2022/03/17 00:33:03;;;;;;;22.73;13.77;;;;;;;9.64;68.85;101837.72;4946558;29;20039;-92
2022/03/17 00:35:42;;;;;;;19.80;13.55;;;;;;;9.62;69.19;101835.16;4934400;29;20023;-95
2022/03/17 00:38:53;;;;;;;22.67;13.55;;;;;;;9.63;69.02;101842.06;4934232;29;20051;-92
2022/03/17 00:41:19;;;;;;;19.90;13.43;;;;;;;9.61;69.26;101829.94;4947756;29;20027;-93
2022/03/17 00:43:46;;;;;;;22.02;13.57;;;;;;;9.58;69.09;101833.44;4934612;29;20602;-93
2022/03/17 00:46:11;;;;;;;21.83;13.70;;;;;;;9.57;69.15;101829.94;4935360;29;20031;-93
2022/03/17 00:48:58;;;;;;;27.40;14.88;;;;;;;9.59;69.04;101837.75;4949885;29;20443;-93
2022/03/17 00:59:10;;;;;;;20.33;13.70;;;;;;;9.52;69.54;101843.84;5075522;23;20437;-94
2022/03/17 01:01:46;;;;;;;21.67;14.23;;;;;;;9.54;69.06;101852.50;4995205;28;20076;-93
2022/03/17 01:04:52;;;;;;;21.13;13.80;;;;;;;9.55;69.17;101851.63;4991937;28;20104;-93
2022/03/17 01:07:29;;;;;;;22.55;13.73;;;;;;;9.53;69.21;101848.16;5009570;28;20121;-94
2022/03/17 01:09:55;;;;;;;22.90;14.02;;;;;;;9.55;69.59;101852.50;4991935;28;20080;-93
2022/03/17 01:12:20;;;;;;;20.60;13.60;;;;;;;9.54;69.52;101844.69;5273747;23;20072;-92
2022/03/17 01:14:47;;;;;;;20.27;13.60;;;;;;;9.52;69.78;101844.72;5015558;28;20389;-92
2022/03/17 01:17:19;;;;;;;24.20;14.63;;;;;;;9.54;69.71;101847.31;4999202;28;20388;-94
2022/03/17 01:19:46;;;;;;;21.05;13.48;;;;;;;9.53;70.13;101845.56;5015717;28;20021;-94
2022/03/17 01:22:12;;;;;;;20.70;13.82;;;;;;;9.55;70.30;101849.91;5013141;28;20045;-92
2022/03/17 01:24:42;;;;;;;26.90;14.23;;;;;;;9.57;69.88;101844.69;5012745;28;20498;-92
2022/03/17 01:27:08;;;;;;;23.17;13.93;;;;;;;9.58;70.08;101838.63;4997319;28;20018;-94
2022/03/17 01:29:43;;;;;;;23.73;14.32;;;;;;;9.61;69.85;101838.63;4995202;28;20021;-94
2022/03/17 01:37:13;;;;;;;27.75;15.13;;;;;;;9.71;69.86;101834.22;5010360;28;20050;-92
2022/03/17 01:39:39;;;;;;;26.35;15.10;;;;;;;9.74;70.33;101844.59;4978672;28;20041;-92
2022/03/17 01:42:09;;;;;;;25.13;14.38;;;;;;;9.76;69.80;101842.84;4993939;28;20033;-91
2022/03/17 01:44:37;;;;;;;25.67;14.48;;;;;;;9.77;69.84;101843.72;4992487;28;20025;-92
2022/03/17 01:49:49;;;;;;;22.73;13.77;;;;;;;9.77;70.12;101852.38;5012180;28;21286;-93
2022/03/17 01:52:16;;;;;;;22.30;13.80;;;;;;;9.79;70.35;101848.03;4978413;28;20057;-94
2022/03/17 01:55:04;;;;;;;26.25;15.50;;;;;;;9.82;69.39;101836.75;4993069;28;20057;-92
2022/03/17 01:57:38;;;;;;;26.45;16.63;;;;;;;9.83;70.02;101839.34;4978270;28;20026;-92
2022/03/17 02:00:06;;;;;;;26.83;15.70;;;;;;;9.81;70.30;101830.69;4994898;28;20438;-92
2022/03/17 02:02:32;;;;;;;26.25;14.65;;;;;;;9.83;70.17;101838.47;4977596;28;20038;-92
2022/03/17 02:05:14;;;;;;;26.02;15.00;;;;;;;9.85;70.02;101834.13;4991404;28;20038;-94
2022/03/17 02:07:59;;;;;;;22.42;13.75;;;;;;;9.87;70.19;101845.38;4992575;28;20076;-92
2022/03/17 02:13:08;;;;;;;23.00;13.80;;;;;;;9.87;70.25;101838.47;5007465;28;20025;-92
2022/03/17 02:13:14;;;;;;;22.55;14.43;;;;;;;9.87;70.58;101830.66;4996175;28;20026;-92
2022/03/17 02:15:41;;;;;;;24.63;14.85;;;;;;;9.90;70.47;101829.75;4991888;28;20026;-92
2022/03/17 02:18:07;;;;;;;23.08;13.88;;;;;;;9.90;70.60;101829.75;4992866;28;20400;-93
2022/03/17 02:20:33;;;;;;;26.02;14.43;;;;;;;9.92;70.87;101838.41;4992447;28;20485;-93
2022/03/17 02:25:55;;;;;;;;;;;;;;;9.95;69.26;101846.19;5012508;28;20073;-94
2022/03/17 02:28:22;;;;;;;25.50;14.23;;;;;;;9.94;70.77;101846.19;4989736;28;19913;-92
2022/03/17 02:30:49;;;;;;;24.95;14.63;;;;;;;9.92;71.07;101847.94;4993055;28;20119;-92
2022/03/17 02:33:17;;;;;;;24.13;14.95;;;;;;;9.92;71.35;101853.13;4976677;28;20037;-91
2022/03/17 02:35:45;;;;;;;24.90;14.85;;;;;;;9.93;71.41;101865.25;4994684;28;20381;-90
2022/03/17 02:38:13;;;;;;;24.30;15.20;;;;;;;9.94;71.98;101864.38;4995196;28;20026;-91
2022/03/17 02:40:41;;;;;;;25.25;14.55;;;;;;;9.96;72.08;101860.03;4993927;28;20032;-91
2022/03/17 02:43:07;;;;;;;25.00;14.82;;;;;;;9.98;71.86;101869.59;5010207;28;20068;-91
2022/03/17 02:45:34;;;;;;;25.52;14.50;;;;;;;9.97;72.59;101866.97;4993370;28;20131;-91
2022/03/17 02:47:59;;;;;;;25.23;15.57;;;;;;;9.98;72.29;101872.19;4996087;28;20112;-92
2022/03/17 02:50:26;;;;;;;23.08;14.40;;;;;;;9.98;72.69;101877.38;4994444;28;20022;-91
2022/03/17 02:52:52;;;;;;;25.05;14.80;;;;;;;9.98;72.65;101873.91;4993222;28;20080;-91
2022/03/17 02:55:17;;;;;;;26.33;14.98;;;;;;;10.00;72.88;101879.97;4996803;28;20491;-90
2022/03/17 02:57:47;;;;;;;25.30;14.75;;;;;;;10.00;72.96;101877.34;5013432;28;20041;-92
2022/03/17 03:00:15;;;;;;;23.33;14.43;;;;;;;9.99;73.20;101883.44;4994321;28;20026;-92
2022/03/17 03:02:41;;;;;;;25.02;15.30;;;;;;;9.99;73.15;101888.63;4992896;28;20053;-90
2022/03/17 03:05:08;;;;;;;24.75;15.35;;;;;;;9.99;73.68;101884.28;5013513;28;20037;-90
2022/03/17 03:07:34;;;;;;;25.25;14.57;;;;;;;10.02;74.15;101886.00;5009238;28;20398;-91
2022/03/17 03:09:59;;;;;;;26.38;14.80;;;;;;;10.01;74.32;101890.34;5013897;28;20041;-91
2022/03/17 03:12:26;;;;;;;28.33;15.77;;;;;;;10.03;75.12;101900.75;4994270;28;20084;-91
2022/03/17 03:14:52;;;;;;;26.55;15.35;;;;;;;10.01;75.55;101910.28;4995618;28;20030;-90
2022/03/17 03:17:17;;;;;;;31.35;17.02;;;;;;;10.01;75.81;101908.53;4995174;28;20551;-91
2022/03/17 03:19:43;;;;;;;29.92;16.85;;;;;;;10.01;76.32;101923.28;4994977;28;20385;-91
2022/03/17 03:22:09;;;;;;;33.70;16.55;;;;;;;10.00;77.11;101924.16;4993508;28;20030;-91
2022/03/17 03:24:36;;;;;;;29.90;17.17;;;;;;;9.99;77.41;101938.88;4994312;28;20099;-91
2022/03/17 03:27:02;;;;;;;30.50;16.58;;;;;;;9.97;78.10;101944.97;4995197;28;20022;-90
2022/03/17 03:29:28;;;;;;;26.85;17.13;;;;;;;9.99;79.35;101948.41;4993461;28;20018;-89
2022/03/17 03:31:57;;;;;;;29.25;16.73;;;;;;;9.95;79.86;101968.38;5010621;28;20036;-91
2022/03/17 03:34:23;;;;;;;26.17;15.07;;;;;;;9.91;79.98;101971.84;5013794;28;20017;-93
2022/03/17 03:37:28;;;;;;;21.83;13.00;;;;;;;9.82;78.94;101970.16;5031401;28;20172;-92
2022/03/17 03:40:00;;;;;;;15.57;9.68;;;;;;;9.76;79.65;101987.53;5012583;28;20607;-91
2022/03/17 03:42:26;;;;;;;13.43;8.15;;;;;;;9.69;80.50;101982.34;4995151;28;20018;-90
2022/03/17 03:44:51;;;;;;;11.40;7.50;;;;;;;9.61;80.29;101989.31;4993225;28;20033;-90
2022/03/17 03:47:27;;;;;;;11.07;7.15;;;;;;;9.54;80.72;101996.25;4994923;28;20029;-93
2022/03/17 03:50:38;;;;;;;10.27;7.22;;;;;;;9.44;80.98;101994.53;4996376;28;20465;-93
2022/03/17 03:53:04;;;;;;;11.02;7.13;;;;;;;9.39;81.74;102004.09;4992886;28;20374;-92
2022/03/17 03:55:30;;;;;;;9.77;6.70;;;;;;;9.36;81.28;102020.53;4980505;28;20041;-91
2022/03/17 03:57:55;;;;;;;11.55;8.13;;;;;;;9.32;82.20;102026.59;5013556;28;20025;-90
2022/03/17 04:02:58;;;;;;;13.00;9.48;;;;;;;9.26;81.60;102044.78;4994110;28;20112;-89
2022/03/17 04:05:34;;;;;;;13.55;9.50;;;;;;;9.16;81.33;102043.94;4994571;28;20109;-90
2022/03/17 04:07:59;;;;;;;14.82;10.45;;;;;;;9.07;81.68;102056.88;4992606;28;20061;-90
2022/03/17 04:10:26;;;;;;;17.88;12.50;;;;;;;9.07;81.24;102065.56;4993524;28;20065;-90
2022/03/17 04:12:52;;;;;;;18.67;11.93;;;;;;;8.96;81.50;102068.16;4994444;28;20037;-91
2022/03/17 04:15:18;;;;;;;21.25;13.15;;;;;;;8.92;81.68;102081.97;4993690;28;20473;-91
2022/03/17 04:17:43;;;;;;;19.58;13.35;;;;;;;8.84;81.66;102081.13;4993715;28;20025;-92
2022/03/17 04:20:09;;;;;;;21.83;12.75;;;;;;;8.76;81.07;102086.28;4992490;28;20040;-90
2022/03/17 04:22:35;;;;;;;20.25;12.40;;;;;;;8.69;81.51;102092.31;5011024;28;20065;-90
2022/03/17 04:25:01;;;;;;;19.80;12.02;;;;;;;8.61;81.48;102101.84;4993128;28;20022;-89
2022/03/17 04:27:26;;;;;;;20.50;12.48;;;;;;;8.60;80.91;102111.31;4994496;28;20034;-90
2022/03/17 04:29:51;;;;;;;19.77;12.77;;;;;;;8.51;81.49;102126.88;4990364;28;20022;-91
2022/03/17 04:32:17;;;;;;;20.75;12.45;;;;;;;8.47;81.52;102136.31;5008329;28;20032;-90
2022/03/17 04:34:42;;;;;;;20.83;13.30;;;;;;;8.45;81.42;102155.31;4993604;28;20029;-91
2022/03/17 04:37:07;;;;;;;26.42;15.00;;;;;;;8.40;81.39;102146.66;5011837;28;20055;-91
2022/03/17 04:39:32;;;;;;;22.58;14.90;;;;;;;8.34;81.68;102153.56;4991113;28;20025;-89
2022/03/17 04:41:58;;;;;;;22.40;13.63;;;;;;;8.32;81.80;102162.19;4992005;28;20034;-89
2022/03/17 04:44:24;;;;;;;23.35;14.50;;;;;;;8.28;82.31;102166.50;5012316;28;20470;-92
2022/03/17 04:46:50;;;;;;;21.33;13.15;;;;;;;8.25;82.11;102179.44;4995313;28;20029;-89
2022/03/17 04:49:15;;;;;;;22.67;14.20;;;;;;;8.22;82.89;102187.19;4993216;28;20029;-91
2022/03/17 04:51:41;;;;;;;21.23;13.80;;;;;;;8.15;83.27;102194.06;5012124;28;20032;-91
2022/03/17 04:54:08;;;;;;;19.73;12.93;;;;;;;8.13;83.63;102202.69;4994139;28;20159;-91
2022/03/17 04:56:34;;;;;;;22.00;14.07;;;;;;;8.08;84.24;102209.56;4993717;28;20026;-92
2022/03/17 04:59:11;;;;;;;21.27;14.23;;;;;;;8.08;83.86;102212.16;4977718;28;20040;-93
2022/03/17 05:04:11;;;;;;;21.77;14.27;;;;;;;8.03;84.71;102225.09;4991047;28;20038;-92
2022/03/17 05:06:37;;;;;;;21.27;12.95;;;;;;;8.07;83.41;102233.75;4974215;28;20030;-92
2022/03/17 05:09:04;;;;;;;23.88;13.88;;;;;;;8.05;82.97;102238.94;4989524;28;20026;-89
2022/03/17 05:11:29;;;;;;;25.45;15.15;;;;;;;7.95;82.87;102250.94;4985193;28;20114;-90
2022/03/17 05:13:55;;;;;;;25.00;14.68;;;;;;;7.93;82.69;102259.59;4979481;28;20046;-92
2022/03/17 05:16:20;;;;;;;20.92;13.48;;;;;;;7.78;83.00;102276.69;4988191;28;20518;-91
2022/03/17 05:18:47;;;;;;;23.90;11.85;;;;;;;7.81;81.71;102278.47;4971771;28;20034;-90
2022/03/17 05:21:14;;;;;;;19.38;10.48;;;;;;;7.69;82.09;102305.13;4974254;28;20060;-90
2022/03/17 05:23:39;;;;;;;17.92;8.48;;;;;;;7.69;80.71;102300.78;4986083;28;20030;-91
2022/03/17 05:26:04;;;;;;;18.13;7.55;;;;;;;7.59;80.64;102311.94;4970532;28;20026;-89
2022/03/17 05:28:30;;;;;;;14.50;6.80;;;;;;;7.53;80.11;102324.81;4972754;28;20022;-90
2022/03/17 05:30:56;;;;;;;15.20;6.70;;;;;;;7.49;80.53;102323.06;4988821;28;20035;-90
2022/03/17 05:33:21;;;;;;;15.98;5.75;;;;;;;7.47;79.71;102345.47;4972831;28;20032;-89
2022/03/17 05:35:47;;;;;;;12.40;5.45;;;;;;;7.41;80.36;102343.69;4991785;28;20054;-90
2022/03/17 05:38:13;;;;;;;13.27;4.90;;;;;;;7.35;80.05;102349.63;4972869;28;20045;-92
2022/03/17 05:40:39;;;;;;;12.52;4.65;;;;;;;7.32;79.53;102347.03;4986536;28;20036;-91
2022/03/17 05:43:08;;;;;;;15.93;3.90;;;;;;;7.36;78.43;102366.91;4969500;28;20568;-92
2022/03/17 05:45:34;;;;;;;12.77;4.10;;;;;;;7.31;77.57;102376.34;4976038;28;20089;-89
2022/03/17 05:48:02;;;;;;;9.30;3.50;;;;;;;7.28;78.02;102371.13;4972968;28;20124;-92
2022/03/17 05:50:31;;;;;;;12.20;3.50;;;;;;;7.26;77.46;102384.03;4971218;28;20022;-89
2022/03/17 05:52:56;;;;;;;11.95;3.13;;;;;;;7.20;77.64;102381.41;4987568;28;20117;-91
2022/03/17 05:55:25;;;;;;;8.63;2.80;;;;;;;7.22;76.70;102395.22;4973885;28;20101;-88
2022/03/17 05:57:54;;;;;;;8.15;2.70;;;;;;;7.19;77.06;102392.59;4974409;28;20034;-95
2022/03/17 06:00:25;;;;;;;9.15;2.92;;;;;;;7.13;77.24;102398.56;4981442;28;20028;-92
2022/03/17 06:02:52;;;;;;;8.98;3.20;;;;;;;7.14;76.96;102404.59;4973475;28;20120;-92
2022/03/17 06:05:18;;;;;;;7.75;2.55;;;;;;;7.14;76.27;102412.34;4975492;28;20042;-92
2022/03/17 06:07:45;;;;;;;9.30;2.78;;;;;;;7.10;76.65;102411.47;4988898;28;20030;-92
2022/03/17 06:10:17;;;;;;;10.60;2.70;;;;;;;7.09;76.80;102425.25;4997490;28;20061;-92
2022/03/17 06:12:44;;;;;;;10.30;2.50;;;;;;;7.07;77.11;102431.25;4987015;28;20030;-94
2022/03/17 06:15:11;;;;;;;7.30;2.20;;;;;;;7.05;77.26;102444.16;4971692;28;20037;-92
2022/03/17 06:18:06;;;;;;;8.35;2.60;;;;;;;7.06;77.28;102445.91;4971374;28;20038;-94
2022/03/17 06:20:34;;;;;;;8.80;2.58;;;;;;;7.04;77.37;102450.16;4970391;28;20054;-91
2022/03/17 06:23:08;;;;;;;10.85;2.08;;;;;;;7.02;77.67;102458.78;4971302;28;20030;-93
2022/03/17 06:25:48;;;;;;;9.27;2.30;;;;;;;6.98;77.62;102471.66;4976384;28;20027;-95
2022/03/17 06:28:18;;;;;;;8.10;2.13;;;;;;;7.02;77.13;102469.97;4978225;28;20030;-94
2022/03/17 06:30:44;;;;;;;8.13;2.10;;;;;;;7.01;77.25;102470.81;4988137;28;20469;-94
2022/03/17 06:33:20;;;;;;;6.65;2.10;;;;;;;6.99;77.56;102485.47;4990188;28;20153;-96
2022/03/17 06:36:29;;;;;;;5.85;1.92;;;;;;;7.05;76.43;102484.69;4989815;28;20030;-96
2022/03/17 06:39:01;;;;;;;6.53;2.22;;;;;;;7.02;76.24;102501.03;4984979;28;20069;-96
2022/03/17 06:41:27;;;;;;;4.40;1.63;;;;;;;7.04;75.76;102516.59;4987692;28;20546;-94
2022/03/17 06:43:52;;;;;;;7.70;1.80;;;;;;;7.02;76.25;102502.75;4974576;28;20027;-94
2022/03/17 06:46:17;;;;;;;7.60;1.73;;;;;;;6.99;76.60;102519.13;4959604;28;20425;-94
2022/03/17 06:48:50;;;;;;;5.28;1.58;;;;;;;6.94;76.89;102526.78;4974096;28;20549;-96
2022/03/17 06:53:43;;;;;;;5.38;1.40;;;;;;;6.94;76.86;102536.28;5384005;23;20046;-94
2022/03/17 06:56:09;;;;;;;6.43;1.60;;;;;;;6.92;77.30;102544.00;5011226;28;20034;-95
2022/03/17 06:58:34;;;;;;;9.30;1.90;;;;;;;6.98;76.21;102553.59;5011000;28;20022;-94
2022/03/17 07:01:01;;;;;;;9.30;2.08;;;;;;;6.96;75.91;102558.72;4994819;28;20033;-94
2022/03/17 07:03:27;;;;;;;3.85;1.60;;;;;;;6.97;76.01;102563.06;4993860;28;20026;-94
2022/03/17 07:05:54;;;;;;;8.90;1.80;;;;;;;6.99;75.87;102555.34;5011180;28;20477;-95
2022/03/17 07:08:31;;;;;;;8.30;2.25;;;;;;;7.04;76.17;102564.03;5011371;28;20018;-96
2022/03/17 07:10:58;;;;;;;6.25;1.90;;;;;;;7.04;75.94;102571.81;5010260;28;20017;-95
2022/03/17 07:13:23;;;;;;;7.80;1.83;;;;;;;7.06;75.81;102575.28;5025716;23;20056;-94
2022/03/17 07:15:49;;;;;;;5.70;1.60;;;;;;;7.08;75.14;102575.34;5010534;28;20125;-94
2022/03/17 07:18:15;;;;;;;4.85;1.67;;;;;;;7.07;75.42;102584.81;5010964;28;20038;-93
2022/03/17 07:20:40;;;;;;;7.85;1.70;;;;;;;7.07;75.33;102592.56;5013033;28;20114;-94
2022/03/17 07:23:05;;;;;;;5.18;1.70;;;;;;;7.07;75.37;102600.31;5013233;28;20460;-93
2022/03/17 07:25:32;;;;;;;3.67;1.50;;;;;;;7.05;75.65;102596.84;5014295;28;20126;-94
2022/03/17 07:27:58;;;;;;;7.35;1.65;;;;;;;7.05;75.93;102612.38;5014090;28;20504;-93
2022/03/17 07:30:24;;;;;;;9.15;1.60;;;;;;;7.03;76.69;102623.53;5014236;28;20381;-93
2022/03/17 07:32:52;;;;;;;7.03;1.65;;;;;;;6.97;77.19;102630.34;5013575;28;20120;-93
2022/03/17 07:35:19;;;;;;;5.97;1.23;;;;;;;6.95;76.99;102629.44;5011925;28;20031;-93
2022/03/17 07:37:44;;;;;;;7.32;1.42;;;;;;;6.96;76.71;102643.28;5013457;28;20105;-91
2022/03/17 07:40:10;;;;;;;5.47;1.50;;;;;;;6.95;76.61;102642.38;5014185;28;20030;-92
2022/03/17 07:42:37;;;;;;;7.90;1.30;;;;;;;6.93;76.22;102638.03;5011120;28;20057;-91
2022/03/17 07:45:04;;;;;;;5.13;1.30;;;;;;;6.95;75.75;102646.69;5012966;28;20114;-90
2022/03/17 07:47:32;;;;;;;8.80;1.50;;;;;;;6.97;76.74;102655.38;5012081;28;20033;-92
2022/03/17 07:49:59;;;;;;;8.20;1.10;;;;;;;7.00;77.05;102665.78;5012422;28;20049;-93
2022/03/17 07:52:24;;;;;;;6.47;1.23;;;;;;;7.04;76.33;102661.53;5012737;28;20026;-92
2022/03/17 07:54:50;;;;;;;8.77;1.20;;;;;;;7.04;75.91;102662.38;5012835;28;20108;-94
2022/03/17 07:57:43;;;;;;;5.28;0.98;;;;;;;7.06;75.80;102670.19;5013237;28;20454;-95
2022/03/17 08:00:13;;;;;;;7.57;1.38;;;;;;;7.10;76.17;102669.38;5012800;28;20105;-94
2022/03/17 08:02:40;;;;;;;8.30;1.20;;;;;;;7.14;76.30;102674.66;5013236;28;20187;-95
2022/03/17 08:05:14;;;;;;;10.60;1.50;;;;;;;7.19;75.71;102679.03;5014556;28;20022;-96
2022/03/17 08:07:41;;;;;;;5.28;1.10;;;;;;;7.21;75.03;102691.16;5014373;28;20552;-96
2022/03/17 08:10:08;;;;;;;8.30;1.13;;;;;;;7.20;75.19;102699.78;5014379;28;20033;-92
2022/03/17 08:12:34;;;;;;;7.30;1.13;;;;;;;7.20;74.68;102699.78;4996562;28;20058;-93
2022/03/17 08:14:59;;;;;;;9.35;1.30;;;;;;;7.18;74.76;102718.69;5010530;28;20492;-92
2022/03/17 08:17:25;;;;;;;8.40;1.40;;;;;;;7.18;74.33;102713.53;5011530;28;20026;-93
2022/03/17 08:19:51;;;;;;;6.25;1.25;;;;;;;7.17;74.88;102720.44;5012434;28;20088;-93
2022/03/17 08:22:17;;;;;;;6.30;1.20;;;;;;;7.14;74.54;102729.03;5012173;28;20109;-93
2022/03/17 08:25:07;;;;;;;5.20;1.13;;;;;;;7.19;74.89;102728.22;5016477;28;20026;-96
2022/03/17 08:27:38;;;;;;;7.60;1.23;;;;;;;7.11;74.56;102725.47;5002276;28;20036;-95
2022/03/17 08:30:05;;;;;;;10.90;1.50;;;;;;;7.12;74.73;102742.75;5002455;28;20469;-95
2022/03/17 08:32:30;;;;;;;7.72;1.27;;;;;;;7.16;74.21;102751.47;5008638;28;20482;-96
2022/03/17 08:34:55;;;;;;;6.80;1.33;;;;;;;7.16;73.45;102752.34;5012905;28;20037;-94
2022/03/17 08:37:21;;;;;;;7.72;1.35;;;;;;;7.22;73.31;102759.34;5008199;28;20084;-95
2022/03/17 08:39:48;;;;;;;8.52;1.27;;;;;;;7.26;72.79;102756.81;5014409;28;20116;-95
2022/03/17 08:42:13;;;;;;;9.68;1.50;;;;;;;7.30;73.04;102768.13;5007566;28;20032;-91
2022/03/17 08:44:39;;;;;;;8.95;1.60;;;;;;;7.35;72.23;102766.50;5009593;28;20029;-89
2022/03/17 08:49:48;;;;;;;5.80;1.23;;;;;;;7.43;70.60;102780.47;5018330;28;20036;-91
2022/03/17 08:52:13;;;;;;;7.75;1.30;;;;;;;7.44;71.07;102786.50;5012432;28;20026;-92
2022/03/17 08:54:38;;;;;;;6.72;1.10;;;;;;;7.51;71.08;102785.78;5016031;28;20049;-91
2022/03/17 09:13:18;;;;;;;6.38;1.20;;;;;;;7.79;67.24;102816.50;5014424;28;20046;-87
2022/03/17 09:15:47;;;;;;;10.00;1.20;;;;;;;7.77;67.58;102820.78;5018148;28;20038;-88
2022/03/17 09:18:12;;;;;;;7.82;1.10;;;;;;;7.75;66.41;102824.22;5018729;28;20021;-87
2022/03/17 09:20:39;;;;;;;9.95;1.08;;;;;;;7.72;67.19;102826.75;5007549;28;20044;-88
2022/03/17 09:23:04;;;;;;;6.10;1.00;;;;;;;7.73;68.08;102825.91;5001846;28;20044;-87
2022/03/17 09:25:31;;;;;;;5.60;1.08;;;;;;;7.77;67.52;102832.00;5002002;28;20029;-87
2022/03/17 09:27:57;;;;;;;6.78;1.10;;;;;;;7.80;66.59;102828.63;5012859;28;20485;-88
2022/03/17 09:30:23;;;;;;;8.35;1.25;;;;;;;7.83;65.58;102834.72;5011930;28;20018;-88
2022/03/17 09:32:52;;;;;;;5.18;1.20;;;;;;;7.86;66.45;102841.66;5012780;28;20026;-88
2022/03/17 09:35:17;;;;;;;8.38;1.20;;;;;;;7.92;65.35;102846.97;5009019;28;20481;-88
2022/03/17 09:37:43;;;;;;;5.97;1.23;;;;;;;7.93;65.30;102866.00;5019175;28;20037;-87
2022/03/17 09:40:10;;;;;;;12.23;1.40;;;;;;;7.97;65.60;102866.06;5019171;28;20022;-85
2022/03/17 09:42:38;;;;;;;10.73;1.42;;;;;;;7.95;66.36;102867.75;5023596;28;20046;-87
2022/03/17 09:45:05;;;;;;;6.70;1.20;;;;;;;7.99;65.21;102869.56;5005948;28;20034;-88
2022/03/17 09:57:59;;;;;;;7.32;0.98;;;;;;;8.02;64.02;102890.38;5096398;23;20126;-90
2022/03/17 10:00:47;;;;;;;6.13;1.20;;;;;;;8.05;63.98;102886.94;4964612;28;20106;-90
2022/03/17 10:03:09;;;;;;;7.35;1.27;;;;;;;8.08;64.18;102899.09;4958976;28;20465;-90
2022/03/17 10:05:35;;;;;;;6.97;1.20;;;;;;;8.12;63.93;102898.28;4942508;28;20562;-90
2022/03/17 10:08:00;;;;;;;6.32;1.27;;;;;;;8.13;65.85;102905.22;4950968;28;20027;-90
2022/03/17 10:10:36;;;;;;;7.53;1.45;;;;;;;8.14;63.96;102914.75;4964037;28;20109;-89
2022/03/17 10:13:10;;;;;;;3.85;1.10;;;;;;;8.18;63.04;102924.34;4947253;28;20084;-89
2022/03/17 10:15:36;;;;;;;5.57;1.55;;;;;;;8.18;63.18;102932.97;4955677;28;20398;-91
2022/03/17 10:18:17;;;;;;;7.80;1.27;;;;;;;8.24;63.63;102937.41;4954079;28;20037;-89
2022/03/17 10:20:42;;;;;;;6.80;1.20;;;;;;;8.27;63.83;102926.22;4943175;28;20476;-89
2022/03/17 10:23:08;;;;;;;7.43;1.50;;;;;;;8.33;63.18;102937.56;4951152;28;20032;-89
2022/03/17 10:25:34;;;;;;;6.20;0.85;;;;;;;8.32;62.29;102929.75;4938644;28;20026;-90
2022/03/17 10:28:01;;;;;;;4.25;1.30;;;;;;;8.37;62.80;102948.00;4940341;28;20027;-90
2022/03/17 10:30:35;;;;;;;5.50;1.20;;;;;;;8.43;62.29;102953.28;4942282;28;20027;-90
2022/03/17 10:33:03;;;;;;;7.28;1.15;;;;;;;8.46;61.66;102959.38;4938032;28;20454;-91
2022/03/17 10:35:34;;;;;;;4.95;1.20;;;;;;;8.48;62.20;102967.25;4945773;28;20026;-91
2022/03/17 10:38:22;;;;;;;4.55;0.98;;;;;;;8.52;62.85;102969.06;4965000;28;20027;-92
2022/03/17 10:41:05;;;;;;;5.88;1.02;;;;;;;8.53;63.25;102959.53;4943387;28;20487;-91
2022/03/17 10:43:33;;;;;;;6.63;1.13;;;;;;;8.54;62.39;102963.88;4933054;28;20031;-90
2022/03/17 10:46:06;;;;;;;6.70;1.33;;;;;;;8.59;63.90;102965.69;4938787;28;20169;-91
2022/03/17 10:48:32;;;;;;;5.75;1.15;;;;;;;8.64;63.10;102979.63;4940722;28;20027;-93
2022/03/17 10:50:57;;;;;;;8.65;1.27;;;;;;;8.69;61.75;102976.25;4944541;28;20067;-90
2022/03/17 10:53:28;;;;;;;8.02;1.42;;;;;;;8.69;60.67;102982.31;4943750;28;20019;-92
2022/03/17 10:56:09;;;;;;;12.55;1.30;;;;;;;8.69;62.51;102991.81;4940668;28;20118;-95
2022/03/17 10:58:43;;;;;;;13.75;1.42;;;;;;;8.72;62.49;102994.44;4940826;28;20071;-94
2022/03/17 11:01:09;;;;;;;7.07;1.25;;;;;;;8.78;60.32;103003.25;4945055;28;20960;-91
2022/03/17 11:03:35;;;;;;;5.20;1.20;;;;;;;8.76;60.15;103002.34;4962830;28;20035;-93
2022/03/17 11:06:02;;;;;;;7.78;1.42;;;;;;;8.70;59.92;103011.75;4950606;28;20406;-93
2022/03/17 11:08:28;;;;;;;6.47;1.27;;;;;;;8.68;60.21;103011.69;4960958;28;20031;-94
2022/03/17 11:10:53;;;;;;;3.03;0.80;;;;;;;8.66;61.10;103010.78;4966471;28;20030;-90
2022/03/17 11:13:19;;;;;;;6.38;1.30;;;;;;;8.69;60.27;103025.56;4964895;28;20398;-92
2022/03/17 11:15:54;;;;;;;8.05;1.40;;;;;;;8.68;60.54;103026.41;4940192;28;20035;-92
2022/03/17 11:18:22;;;;;;;4.78;1.40;;;;;;;8.65;59.62;103033.28;4935395;28;20394;-91
2022/03/17 11:20:48;;;;;;;4.43;1.20;;;;;;;8.66;59.98;103039.34;4941947;28;20059;-92
2022/03/17 11:23:19;;;;;;;6.80;1.48;;;;;;;8.69;59.21;103038.53;4940023;28;20070;-94
2022/03/17 11:25:54;;;;;;;8.60;1.95;;;;;;;8.76;60.51;103040.38;4956466;28;20125;-93
2022/03/17 11:28:34;;;;;;;9.45;1.40;;;;;;;8.85;60.12;103040.53;4961442;28;20472;-94
2022/03/17 11:31:02;;;;;;;3.15;1.05;;;;;;;8.94;60.26;103040.69;4960298;28;20429;-94
2022/03/17 11:33:34;;;;;;;15.80;1.48;;;;;;;9.08;59.71;103047.81;4920966;28;20047;-93
2022/03/17 11:36:12;;;;;;;3.55;1.10;;;;;;;9.18;59.71;103048.84;4950492;28;20049;-90
2022/03/17 11:38:39;;;;;;;3.92;1.20;;;;;;;9.27;59.21;103042.06;4948577;28;20038;-93
2022/03/17 11:41:10;;;;;;;7.75;1.10;;;;;;;9.33;58.96;103053.41;4946342;28;20019;-94
2022/03/17 11:44:00;;;;;;;3.50;1.00;;;;;;;9.37;58.72;103044.81;4947026;28;20042;-94
2022/03/17 11:46:39;;;;;;;5.20;1.20;;;;;;;9.31;57.92;103062.91;4941680;28;20090;-90
2022/03/17 11:49:27;;;;;;;4.05;1.20;;;;;;;9.31;59.56;103065.50;4968399;28;20646;-96
2022/03/17 11:52:02;;;;;;;4.50;1.30;;;;;;;9.27;58.83;103070.66;4940025;28;20053;-96
2022/03/17 11:54:30;;;;;;;7.20;1.63;;;;;;;9.30;59.84;103066.34;4945891;28;20039;-95
2022/03/17 11:57:04;;;;;;;5.82;1.63;;;;;;;9.41;59.55;103064.78;4945424;28;20062;-94
2022/03/17 11:59:54;;;;;;;6.18;1.60;;;;;;;9.50;58.40;103070.13;4947495;28;20038;-92
2022/03/17 12:02:21;;;;;;;6.20;1.70;;;;;;;9.50;57.48;103070.13;4941800;28;20094;-93
2022/03/17 12:04:48;;;;;;;5.18;1.42;;;;;;;9.54;57.55;103071.03;4950111;28;20030;-93
2022/03/17 12:07:14;;;;;;;4.95;1.40;;;;;;;9.60;57.12;103081.53;4950610;28;20039;-92
2022/03/17 12:09:40;;;;;;;17.65;2.50;;;;;;;9.56;57.78;103088.38;4949381;28;20042;-92
2022/03/17 12:12:26;;;;;;;4.97;1.60;;;;;;;9.50;58.40;103088.31;4963309;28;20427;-94
2022/03/17 12:15:00;;;;;;;4.80;1.67;;;;;;;9.53;58.54;103077.97;4966050;28;20494;-93
2022/03/17 12:17:27;;;;;;;6.75;1.80;;;;;;;9.63;57.60;103083.28;4949384;28;20034;-92
2022/03/17 12:20:14;;;;;;;7.15;1.80;;;;;;;9.67;58.76;103082.50;4945677;28;20494;-94
2022/03/17 12:22:43;;;;;;;7.20;1.80;;;;;;;9.76;57.61;103090.41;4961400;28;20495;-93
2022/03/17 12:25:16;;;;;;;5.95;1.85;;;;;;;9.81;56.99;103090.50;4944232;28;20057;-93
2022/03/17 12:27:43;;;;;;;6.28;1.63;;;;;;;9.90;56.58;103094.94;4954093;28;20094;-93
2022/03/17 12:30:17;;;;;;;5.47;1.70;;;;;;;9.99;57.10;103092.44;4961598;28;20087;-94
2022/03/17 12:32:48;;;;;;;6.95;1.88;;;;;;;10.03;56.93;103089.03;4952265;28;20035;-95
2022/03/17 12:35:15;;;;;;;5.23;1.40;;;;;;;10.13;56.06;103090.03;4948975;29;20058;-95
2022/03/17 12:37:42;;;;;;;8.38;2.05;;;;;;;10.15;56.87;103094.38;4936322;28;20098;-93
2022/03/17 12:40:14;;;;;;;8.57;1.88;;;;;;;10.14;55.75;103095.25;4952223;28;20363;-93
2022/03/17 12:42:46;;;;;;;7.07;1.80;;;;;;;10.15;57.00;103094.38;4947485;28;20046;-94